createdAt,value
2019-05-18T00:02:18.536Z,7.13
2019-05-18T00:04:45.121Z,6.80
2019-05-18T00:07:13.992Z,6.78
2019-05-18T00:09:40.574Z,7.83
2019-05-18T00:12:07.161Z,8.03
2019-05-18T00:14:35.892Z,7.37
2019-05-18T00:17:02.755Z,7.73
2019-05-18T00:19:29.617Z,7.78
2019-05-18T00:21:58.522Z,7.53
2019-05-18T00:24:25.212Z,7.87
2019-05-18T00:26:52.111Z,7.47
2019-05-18T00:29:22.126Z,7.50
2019-05-18T00:31:48.708Z,6.93
2019-05-18T00:34:15.290Z,7.67
2019-05-18T00:36:44.090Z,7.23
2019-05-18T00:39:10.672Z,8.40
2019-05-18T00:41:37.289Z,7.43
2019-05-18T00:44:06.320Z,7.45
2019-05-18T00:46:32.902Z,7.93
2019-05-18T00:48:59.491Z,8.35
2019-05-18T00:51:28.612Z,8.00
2019-05-18T00:53:55.220Z,7.27
2019-05-18T00:56:22.151Z,8.40
2019-05-18T00:58:50.513Z,8.60
2019-05-18T01:01:17.100Z,7.33
2019-05-18T01:03:44.010Z,6.97
2019-05-18T01:06:14.019Z,7.40
2019-05-18T01:08:40.606Z,7.57
2019-05-18T01:11:07.474Z,8.13
2019-05-18T01:13:36.300Z,7.90
2019-05-18T01:16:03.148Z,8.33
2019-05-18T01:18:30.062Z,13.63
2019-05-18T01:20:58.483Z,8.40
2019-05-18T01:23:25.347Z,8.20
2019-05-18T01:25:51.981Z,6.93
2019-05-18T01:28:21.504Z,8.28
2019-05-18T01:30:48.393Z,8.23
2019-05-18T01:33:15.499Z,9.25
2019-05-18T01:35:43.677Z,9.70
2019-05-18T01:38:12.043Z,8.35
2019-05-18T01:40:38.656Z,9.17
2019-05-18T01:43:07.457Z,7.83
2019-05-18T01:45:34.055Z,8.37
2019-05-18T01:48:12.784Z,8.17
2019-05-18T01:50:32.200Z,8.07
2019-05-18T01:52:58.885Z,7.00
2019-05-18T01:55:25.495Z,7.47
2019-05-18T01:57:54.740Z,7.90
2019-05-18T02:00:22.457Z,8.40
2019-05-18T02:02:49.043Z,7.97
2019-05-18T02:05:18.002Z,8.50
2019-05-18T02:07:44.861Z,8.83
2019-05-18T02:10:11.443Z,7.30
2019-05-18T02:12:40.346Z,8.07
2019-05-18T02:15:06.930Z,14.30
2019-05-18T02:17:33.544Z,6.57
2019-05-18T02:20:02.174Z,8.17
2019-05-18T02:22:28.761Z,9.07
2019-05-18T02:24:55.597Z,8.10
2019-05-18T02:27:24.491Z,8.10
2019-05-18T02:29:51.292Z,8.83
2019-05-18T02:32:18.156Z,8.83
2019-05-18T02:34:46.836Z,7.23
2019-05-18T02:37:13.494Z,9.20
2019-05-18T02:39:40.077Z,8.47
2019-05-18T02:42:08.859Z,8.73
2019-05-18T02:44:35.466Z,7.70
2019-05-18T02:47:02.054Z,7.50
2019-05-18T02:49:31.921Z,7.13
2019-05-18T02:51:58.820Z,8.63
2019-05-18T02:54:25.421Z,8.57
2019-05-18T02:56:53.750Z,8.50
2019-05-18T02:59:20.332Z,8.90
2019-05-18T03:01:46.938Z,9.33
2019-05-18T03:04:16.055Z,7.97
2019-05-18T03:06:42.847Z,8.57
2019-05-18T03:09:09.708Z,8.20
2019-05-18T03:11:42.943Z,7.90
2019-05-18T03:14:09.534Z,8.33
2019-05-18T03:16:36.347Z,8.17
2019-05-18T03:19:08.697Z,8.03
2019-05-18T03:21:33.129Z,8.70
2019-05-18T03:23:59.725Z,7.63
2019-05-18T03:26:28.306Z,8.20
2019-05-18T03:28:55.165Z,8.08
2019-05-18T03:31:22.197Z,7.58
2019-05-18T03:33:52.141Z,6.93
2019-05-18T03:36:18.725Z,8.00
2019-05-18T03:38:45.598Z,8.03
2019-05-18T03:41:14.450Z,7.30
2019-05-18T03:43:41.292Z,8.03
2019-05-18T03:46:07.891Z,7.03
2019-05-18T03:48:37.334Z,7.83
2019-05-18T03:51:03.906Z,7.83
2019-05-18T03:53:30.689Z,6.80
2019-05-18T03:55:59.898Z,7.50
2019-05-18T03:58:26.653Z,8.37
2019-05-18T04:00:53.547Z,7.85
2019-05-18T04:03:22.074Z,8.27
2019-05-18T04:05:48.844Z,7.40
2019-05-18T04:08:15.433Z,7.70
2019-05-18T04:10:44.235Z,8.17
2019-05-18T04:13:11.191Z,7.35
2019-05-18T04:15:37.785Z,6.97
2019-05-18T04:18:06.241Z,8.20
2019-05-18T04:20:32.836Z,6.87
2019-05-18T04:22:59.419Z,9.07
2019-05-18T04:25:28.663Z,8.48
2019-05-18T04:27:55.335Z,8.80
2019-05-18T04:30:22.512Z,8.23
2019-05-18T04:32:51.006Z,8.57
2019-05-18T04:35:17.851Z,8.90
2019-05-18T04:37:44.715Z,8.53
2019-05-18T04:42:46.527Z,9.28
2019-05-18T04:45:13.141Z,9.70
2019-05-18T04:47:40.005Z,8.88
2019-05-18T04:50:08.358Z,9.13
2019-05-18T04:52:34.952Z,9.23
2019-05-18T04:55:01.863Z,8.50
2019-05-18T04:57:32.645Z,7.90
2019-05-18T04:59:59.218Z,8.75
2019-05-18T05:02:25.831Z,8.87
2019-05-18T05:04:56.684Z,8.37
2019-05-18T05:07:22.617Z,9.03
2019-05-18T05:09:49.206Z,8.73
2019-05-18T05:12:17.905Z,8.63
2019-05-18T05:14:45.664Z,9.23
2019-05-18T05:17:12.315Z,8.47
2019-05-18T05:19:41.131Z,10.93
2019-05-18T05:22:07.706Z,8.50
2019-05-18T05:24:34.578Z,8.07
2019-05-18T05:27:03.505Z,8.87
2019-05-18T05:29:30.104Z,8.13
2019-05-18T05:31:57.706Z,8.40
2019-05-18T05:34:26.507Z,9.73
2019-05-18T05:36:57.180Z,8.13
2019-05-18T05:39:25.535Z,9.10
2019-05-18T05:41:54.199Z,9.43
2019-05-18T05:44:21.866Z,10.10
2019-05-18T05:46:48.462Z,10.13
2019-05-18T05:49:20.353Z,9.80
2019-05-18T05:51:46.952Z,10.63
2019-05-18T05:54:13.823Z,13.13
2019-05-18T05:56:43.868Z,11.10
2019-05-18T05:59:11.596Z,10.23
2019-05-18T06:01:39.217Z,10.47
2019-05-18T06:04:07.917Z,13.63
2019-05-18T06:06:35.536Z,11.83
2019-05-18T06:09:03.285Z,13.57
2019-05-18T06:11:32.556Z,10.50
2019-05-18T06:14:00.155Z,11.68
2019-05-18T06:16:29.731Z,11.87
2019-05-18T06:18:58.502Z,11.77
2019-05-18T06:21:26.410Z,11.30
2019-05-18T06:23:54.046Z,11.20
2019-05-18T06:26:24.378Z,13.10
2019-05-18T06:28:51.018Z,13.83
2019-05-18T06:31:17.613Z,10.95
2019-05-18T06:33:47.349Z,12.33
2019-05-18T06:36:14.737Z,11.55
2019-05-18T06:38:41.381Z,11.00
2019-05-18T06:41:12.871Z,11.77
2019-05-18T06:43:39.793Z,11.03
2019-05-18T06:46:06.630Z,11.27
2019-05-18T06:48:36.135Z,11.63
2019-05-18T06:51:07.214Z,11.13
2019-05-18T06:53:31.174Z,11.87
2019-05-18T06:56:01.290Z,10.63
2019-05-18T06:58:28.158Z,11.00
2019-05-18T07:00:55.817Z,11.30
2019-05-18T07:03:25.037Z,11.57
2019-05-18T07:05:52.921Z,11.45
2019-05-18T07:08:20.528Z,12.33
2019-05-18T07:10:50.692Z,12.63
2019-05-18T07:13:20.706Z,10.87
2019-05-18T07:15:48.326Z,10.93
2019-05-18T07:18:18.276Z,11.43
2019-05-18T07:20:44.869Z,10.97
2019-05-18T07:23:11.461Z,11.97
2019-05-18T07:25:41.919Z,11.37
2019-05-18T07:28:09.551Z,9.88
2019-05-18T07:30:37.159Z,12.07
2019-05-18T07:33:07.768Z,11.97
2019-05-18T07:35:35.434Z,11.27
2019-05-18T07:38:02.783Z,11.90
2019-05-18T07:40:31.545Z,9.83
2019-05-18T07:42:59.109Z,12.53
2019-05-18T07:45:25.992Z,12.58
2019-05-18T07:47:54.918Z,11.83
2019-05-18T07:50:21.810Z,10.60
2019-05-18T07:52:48.398Z,10.33
2019-05-18T07:55:17.001Z,10.90
2019-05-18T07:57:43.799Z,10.90
2019-05-18T08:00:11.402Z,11.83
2019-05-18T08:02:41.031Z,11.57
2019-05-18T08:05:07.911Z,10.98
2019-05-18T08:07:34.807Z,11.47
2019-05-18T08:10:03.416Z,9.77
2019-05-18T08:12:30.292Z,10.87
2019-05-18T08:14:56.888Z,9.67
2019-05-18T08:17:25.886Z,10.90
2019-05-18T08:19:52.473Z,9.43
2019-05-18T08:22:19.268Z,10.00
2019-05-18T08:24:48.481Z,9.10
2019-05-18T08:27:15.303Z,9.70
2019-05-18T08:29:41.895Z,9.33
2019-05-18T08:32:10.940Z,9.20
2019-05-18T08:34:38.537Z,10.60
2019-05-18T08:37:05.429Z,9.73
2019-05-18T08:39:34.227Z,9.73
2019-05-18T08:42:00.875Z,10.90
2019-05-18T08:44:27.473Z,11.57
2019-05-18T08:47:00.511Z,10.10
2019-05-18T08:49:27.129Z,11.87
2019-05-18T08:52:07.440Z,11.30
2019-05-18T08:54:24.101Z,11.37
2019-05-18T08:56:50.989Z,10.57
2019-05-18T08:59:17.576Z,11.20
2019-05-18T09:01:47.728Z,12.18
2019-05-18T09:04:14.327Z,12.37
2019-05-18T09:06:40.932Z,11.93
2019-05-18T09:09:10.064Z,14.00
2019-05-18T09:11:36.663Z,13.23
2019-05-18T09:14:03.405Z,12.20
2019-05-18T09:16:32.371Z,13.17
2019-05-18T09:19:01.377Z,12.07
2019-05-18T09:21:28.971Z,12.67
2019-05-18T09:23:58.613Z,12.80
2019-05-18T09:26:25.308Z,11.63
2019-05-18T09:28:51.918Z,12.27
2019-05-18T09:31:21.447Z,12.40
2019-05-18T09:33:49.356Z,11.27
2019-05-18T09:36:16.594Z,13.18
2019-05-18T09:38:46.174Z,11.43
2019-05-18T09:41:12.798Z,12.67
2019-05-18T09:43:39.607Z,12.37
2019-05-18T09:46:08.578Z,11.20
2019-05-18T09:48:35.553Z,11.80
2019-05-18T09:51:02.252Z,12.20
2019-05-18T09:53:30.967Z,11.40
2019-05-18T09:55:57.727Z,11.60
2019-05-18T09:58:24.601Z,11.18
2019-05-18T10:00:53.530Z,10.80
2019-05-18T10:03:20.115Z,11.53
2019-05-18T10:05:46.713Z,12.67
2019-05-18T10:08:16.114Z,12.67
2019-05-18T10:10:42.887Z,12.73
2019-05-18T10:13:09.763Z,13.43
2019-05-18T10:15:38.558Z,13.37
2019-05-18T10:18:05.723Z,12.90
2019-05-18T10:20:32.631Z,13.17
2019-05-18T10:23:12.464Z,14.73
2019-05-18T10:25:30.171Z,15.47
2019-05-18T10:27:56.762Z,14.53
2019-05-18T10:30:25.757Z,15.10
2019-05-18T10:32:52.453Z,15.30
2019-05-18T10:35:20.078Z,15.63
2019-05-18T10:37:48.858Z,15.10
2019-05-18T10:40:15.464Z,14.23
2019-05-18T10:42:42.325Z,14.83
2019-05-18T10:45:13.228Z,16.30
2019-05-18T10:47:40.153Z,16.93
2019-05-18T10:50:06.747Z,17.10
2019-05-18T10:52:35.714Z,16.23
2019-05-18T10:57:50.063Z,18.33
2019-05-18T11:00:16.670Z,17.53
2019-05-18T11:02:43.322Z,17.67
2019-05-18T11:05:11.965Z,19.40
2019-05-18T11:07:38.840Z,17.02
2019-05-18T11:10:05.650Z,18.10
2019-05-18T11:12:34.470Z,20.00
2019-05-18T11:15:01.052Z,20.13
2019-05-18T11:17:28.018Z,18.83
2019-05-18T11:19:56.690Z,20.70
2019-05-18T11:22:23.289Z,18.53
2019-05-18T11:24:50.167Z,21.50
2019-05-18T11:27:19.298Z,21.57
2019-05-18T11:29:45.891Z,22.37
2019-05-18T11:32:12.758Z,22.90
2019-05-18T11:34:44.403Z,20.52
2019-05-18T11:37:10.997Z,23.20
2019-05-18T11:39:37.589Z,23.27
2019-05-18T11:42:06.257Z,19.87
2019-05-18T11:44:32.848Z,21.70
2019-05-18T11:46:59.462Z,23.10
2019-05-18T11:49:29.159Z,22.87
2019-05-18T11:51:55.905Z,20.20
2019-05-18T11:54:22.502Z,20.37
2019-05-18T11:56:51.198Z,18.90
2019-05-18T11:59:17.761Z,22.03
2019-05-18T12:04:13.083Z,20.65
2019-05-18T12:06:40.024Z,21.77
2019-05-18T12:09:06.692Z,23.17
2019-05-18T12:11:35.510Z,23.33
2019-05-18T12:14:02.359Z,22.60
2019-05-18T12:16:28.986Z,23.73
2019-05-18T12:18:57.898Z,22.47
2019-05-18T12:21:24.491Z,20.77
2019-05-18T12:23:52.108Z,21.75
2019-05-18T12:26:22.003Z,22.23
2019-05-18T12:28:49.089Z,21.57
2019-05-18T12:31:16.977Z,20.95
2019-05-18T12:33:47.032Z,20.37
2019-05-18T12:36:15.565Z,22.87
2019-05-18T12:38:42.209Z,22.73
2019-05-18T12:41:11.887Z,20.57
2019-05-18T12:43:39.792Z,22.17
2019-05-18T12:46:06.753Z,20.40
2019-05-18T12:48:40.325Z,20.13
2019-05-18T12:51:10.544Z,22.22
2019-05-18T12:53:37.495Z,21.03
2019-05-18T12:56:06.650Z,21.90
2019-05-18T12:58:33.575Z,20.77
2019-05-18T13:01:00.752Z,22.25
2019-05-18T13:03:30.823Z,20.87
2019-05-18T13:05:57.693Z,20.90
2019-05-18T13:08:24.585Z,22.42
2019-05-18T13:20:41.542Z,22.50
2019-05-18T13:25:37.674Z,24.36
2019-05-18T13:28:04.587Z,22.57
2019-05-18T13:30:31.460Z,24.47
2019-05-18T13:32:59.979Z,24.63
2019-05-18T13:35:26.887Z,20.60
2019-05-18T13:37:53.598Z,21.03
2019-05-18T14:19:49.477Z,24.12
2019-05-18T14:22:16.190Z,25.40
2019-05-18T14:27:19.201Z,21.93
2019-05-18T14:29:45.821Z,21.50
2019-05-18T14:32:13.460Z,21.87
2019-05-18T14:34:42.100Z,20.20
2019-05-18T14:37:09.045Z,23.93
2019-05-18T14:39:35.905Z,22.80
2019-05-18T14:42:07.853Z,23.40
2019-05-18T14:44:34.791Z,21.70
2019-05-18T14:47:01.685Z,19.73
2019-05-18T14:49:31.630Z,22.47
2019-05-18T14:51:58.811Z,22.58
2019-05-18T14:54:25.933Z,23.00
2019-05-18T15:43:46.769Z,20.30
2019-05-18T16:45:50.154Z,17.60
2019-05-18T16:53:18.235Z,20.75
2019-05-18T16:55:45.139Z,20.73
2019-05-18T16:58:12.049Z,20.23
2019-05-18T17:00:40.737Z,20.90
2019-05-18T17:03:07.618Z,19.83
2019-05-18T17:05:34.502Z,20.67
2019-05-18T17:10:36.257Z,20.60
2019-05-18T17:13:03.132Z,19.63
2019-05-18T17:15:30.330Z,21.15
2019-05-18T17:18:02.721Z,17.90
2019-05-18T17:20:29.624Z,20.13
2019-05-18T17:22:56.515Z,21.03
2019-05-18T17:25:25.651Z,19.17
2019-05-18T17:27:52.543Z,21.30
2019-05-18T17:30:19.457Z,21.20
2019-05-18T17:32:48.659Z,21.43
2019-05-18T17:35:15.332Z,21.13
2019-05-18T17:37:42.198Z,19.90
2019-05-18T17:40:12.092Z,21.55
2019-05-18T17:42:38.965Z,20.40
2019-05-18T17:45:06.156Z,21.82
2019-05-18T17:47:34.942Z,21.27
2019-05-18T17:50:02.129Z,21.27
2019-05-18T17:52:28.989Z,23.67
2019-05-18T17:55:00.721Z,20.60
2019-05-18T17:57:27.593Z,22.13
2019-05-18T17:59:54.922Z,22.07
2019-05-18T18:02:23.381Z,21.15
2019-05-18T18:04:53.975Z,22.55
2019-05-18T18:07:19.133Z,22.30
2019-05-18T18:09:51.405Z,24.47
2019-05-18T18:12:18.292Z,22.30
2019-05-18T18:14:44.876Z,19.60
2019-05-18T18:17:17.544Z,22.17
2019-05-18T18:19:43.000Z,22.57
2019-05-18T18:22:13.615Z,23.40
2019-05-18T18:24:42.849Z,21.82
2019-05-18T18:27:24.195Z,22.45
2019-05-18T18:29:38.354Z,23.47
2019-05-18T18:32:07.349Z,21.63
2019-05-18T18:34:34.227Z,21.97
2019-05-18T18:37:01.089Z,26.97
2019-05-18T18:42:02.048Z,30.70
2019-05-18T18:44:28.926Z,32.43
2019-05-18T18:46:55.545Z,28.30
2019-05-18T18:49:24.245Z,29.37
2019-05-18T18:51:50.962Z,25.37
2019-05-18T18:54:17.693Z,26.37
2019-05-18T18:59:19.651Z,25.00
2019-05-18T19:01:46.412Z,27.27
2019-05-18T19:04:15.056Z,25.63
2019-05-18T19:06:43.838Z,26.97
2019-05-18T19:09:14.845Z,26.10
2019-05-18T19:11:42.934Z,24.67
2019-05-18T19:16:44.466Z,26.50
2019-05-18T19:19:12.091Z,26.70
2019-05-18T19:26:45.589Z,25.95
2019-05-18T19:29:12.177Z,26.57
2019-05-18T19:31:38.775Z,24.37
2019-05-18T19:34:07.862Z,25.13
2019-05-18T19:36:34.718Z,25.77
2019-05-18T19:39:01.297Z,27.67
2019-05-18T19:44:05.415Z,25.73
2019-05-18T19:46:33.040Z,25.80
2019-05-18T19:48:59.648Z,25.47
2019-05-18T19:51:29.907Z,26.17
2019-05-18T19:53:56.796Z,25.20
2019-05-18T19:56:23.413Z,25.20
2019-05-18T20:01:27.457Z,26.73
2019-05-18T20:03:55.044Z,26.53
2019-05-18T20:06:22.965Z,25.12
2019-05-18T20:08:55.040Z,28.63
2019-05-18T20:11:22.921Z,26.97
2019-05-18T20:13:50.745Z,29.40
2019-05-18T20:16:19.449Z,28.37
2019-05-18T20:18:46.170Z,27.77
2019-05-18T20:21:14.056Z,31.75
2019-05-18T20:23:45.997Z,26.47
2019-05-18T20:26:16.906Z,27.90
2019-05-18T20:28:43.804Z,30.73
2019-05-18T20:31:13.560Z,25.43
2019-05-18T20:33:40.318Z,26.93
2019-05-18T20:36:07.922Z,30.30
2019-05-18T20:38:36.634Z,31.48
2019-05-18T20:41:03.377Z,27.17
2019-05-18T20:43:30.279Z,28.93
2019-05-18T20:45:58.945Z,26.90
2019-05-18T20:48:25.870Z,27.73
2019-05-18T20:50:52.480Z,27.33
2019-05-18T20:53:21.803Z,28.12
2019-05-18T20:55:48.407Z,28.60
2019-05-18T20:58:15.021Z,29.00
2019-05-18T21:00:43.440Z,27.90
2019-05-18T21:03:10.034Z,28.95
2019-05-18T21:05:36.651Z,29.73
2019-05-18T21:08:05.244Z,28.83
2019-05-18T21:10:32.104Z,30.02
2019-05-18T21:12:59.040Z,26.77
2019-05-18T21:15:29.695Z,27.30
2019-05-18T21:17:56.467Z,28.17
2019-05-18T21:20:23.079Z,28.50
2019-05-18T21:22:51.931Z,28.62
2019-05-18T21:25:18.532Z,29.83
2019-05-18T21:27:45.250Z,30.43
2019-05-18T21:30:14.076Z,28.02
2019-05-18T21:32:40.994Z,27.20
2019-05-18T21:35:07.898Z,30.12
2019-05-18T21:37:37.701Z,34.80
2019-05-18T21:40:04.292Z,31.03
2019-05-18T21:42:30.924Z,32.60
2019-05-18T21:44:59.854Z,33.20
2019-05-18T21:47:26.726Z,26.85
2019-05-18T21:49:53.320Z,29.17
2019-05-18T21:52:22.044Z,29.43
2019-05-18T21:54:48.633Z,30.93
2019-05-18T21:57:15.231Z,29.90
2019-05-18T22:02:19.476Z,29.00
2019-05-18T22:04:46.194Z,31.63
2019-05-18T22:07:13.062Z,36.30
2019-05-18T22:09:41.589Z,32.67
2019-05-18T22:12:08.171Z,33.07
2019-05-18T22:14:34.763Z,32.93
2019-05-18T22:17:05.013Z,35.43
2019-05-18T22:19:31.609Z,31.63
2019-05-18T22:21:58.776Z,35.13
2019-05-18T22:24:27.206Z,32.07
2019-05-18T22:26:54.811Z,32.90
2019-05-18T22:29:21.403Z,30.73
2019-05-18T22:34:22.102Z,33.23
2019-05-18T22:36:48.711Z,33.73
2019-05-18T22:39:15.306Z,30.80
2019-05-18T22:41:46.808Z,35.37
2019-05-18T22:44:13.697Z,31.93
2019-05-18T22:46:40.274Z,29.90
2019-05-18T22:49:08.949Z,30.60
2019-05-18T22:51:35.822Z,33.97
2019-05-18T22:54:02.500Z,34.97
2019-05-18T22:56:32.145Z,33.57
2019-05-18T22:58:58.742Z,32.03
2019-05-18T23:01:25.446Z,37.27
2019-05-18T23:03:54.212Z,34.70
2019-05-18T23:06:21.088Z,32.47
2019-05-18T23:08:47.677Z,31.83
2019-05-18T23:11:17.049Z,34.80
2019-05-18T23:13:43.916Z,31.12
2019-05-18T23:16:10.590Z,33.40
2019-05-18T23:18:39.679Z,30.43
2019-05-18T23:21:06.278Z,38.77
2019-05-18T23:23:32.855Z,36.27
2019-05-18T23:26:02.419Z,31.90
2019-05-18T23:28:29.318Z,36.20
2019-05-18T23:30:56.188Z,33.90
2019-05-18T23:33:24.837Z,32.43
2019-05-18T23:35:51.459Z,30.77
2019-05-18T23:38:18.075Z,33.10
2019-05-18T23:40:47.345Z,32.67
2019-05-18T23:43:13.933Z,29.67
2019-05-18T23:45:40.531Z,31.20
2019-05-18T23:48:10.911Z,28.90
2019-05-18T23:50:37.555Z,31.27
2019-05-18T23:53:04.435Z,29.23
2019-05-18T23:55:33.660Z,30.17
2019-05-18T23:58:05.294Z,33.37
